sensor_id;sensor_type;location;lat;lon;timestamp;temperature;humidity
13205;DHT22;6667;52.634;9.226;2023-08-07T00:00:22;16.30;99.90
13205;DHT22;6667;52.634;9.226;2023-08-07T00:02:49;16.30;99.90
13205;DHT22;6667;52.634;9.226;2023-08-07T00:05:16;16.30;99.90
13205;DHT22;6667;52.634;9.226;2023-08-07T00:07:43;16.20;99.90
13205;DHT22;6667;52.634;9.226;2023-08-07T00:10:11;16.20;99.90
13205;DHT22;6667;52.634;9.226;2023-08-07T00:12:40;16.20;99.90
13205;DHT22;6667;52.634;9.226;2023-08-07T00:18:44;16.20;99.90
13205;DHT22;6667;52.634;9.226;2023-08-07T00:21:12;16.20;99.90
13205;DHT22;6667;52.634;9.226;2023-08-07T00:30:31;16.30;99.90
13205;DHT22;6667;52.634;9.226;2023-08-07T00:33:04;16.30;99.90
13205;DHT22;6667;52.634;9.226;2023-08-07T00:42:12;16.20;99.90
13205;DHT22;6667;52.634;9.226;2023-08-07T00:44:40;16.20;99.90
13205;DHT22;6667;52.634;9.226;2023-08-07T00:47:11;16.20;99.90
13205;DHT22;6667;52.634;9.226;2023-08-07T00:49:38;16.20;99.90
13205;DHT22;6667;52.634;9.226;2023-08-07T00:52:06;16.10;99.90
13205;DHT22;6667;52.634;9.226;2023-08-07T00:54:34;16.10;99.90
13205;DHT22;6667;52.634;9.226;2023-08-07T00:57:09;16.00;99.90
13205;DHT22;6667;52.634;9.226;2023-08-07T00:59:37;16.00;99.90
13205;DHT22;6667;52.634;9.226;2023-08-07T01:02:07;16.00;99.90
13205;DHT22;6667;52.634;9.226;2023-08-07T01:04:35;16.00;99.90
13205;DHT22;6667;52.634;9.226;2023-08-07T01:07:02;16.00;99.90
13205;DHT22;6667;52.634;9.226;2023-08-07T01:09:29;16.00;99.90
13205;DHT22;6667;52.634;9.226;2023-08-07T01:12:04;15.90;99.90
13205;DHT22;6667;52.634;9.226;2023-08-07T01:14:37;15.90;99.90
13205;DHT22;6667;52.634;9.226;2023-08-07T01:17:14;15.90;99.90
13205;DHT22;6667;52.634;9.226;2023-08-07T01:19:42;15.80;99.90
13205;DHT22;6667;52.634;9.226;2023-08-07T01:22:11;15.80;99.90
13205;DHT22;6667;52.634;9.226;2023-08-07T01:24:40;15.80;99.90
13205;DHT22;6667;52.634;9.226;2023-08-07T01:30:11;15.70;99.90
13205;DHT22;6667;52.634;9.226;2023-08-07T01:35:57;15.60;99.90
13205;DHT22;6667;52.634;9.226;2023-08-07T01:38:27;15.60;99.90
13205;DHT22;6667;52.634;9.226;2023-08-07T01:40:56;15.60;99.90
13205;DHT22;6667;52.634;9.226;2023-08-07T01:43:24;15.60;99.90
13205;DHT22;6667;52.634;9.226;2023-08-07T01:45:54;15.50;99.90
13205;DHT22;6667;52.634;9.226;2023-08-07T01:48:21;15.50;99.90
13205;DHT22;6667;52.634;9.226;2023-08-07T01:50:48;15.40;99.90
13205;DHT22;6667;52.634;9.226;2023-08-07T01:53:15;15.40;99.90
13205;DHT22;6667;52.634;9.226;2023-08-07T01:55:43;15.40;99.90
13205;DHT22;6667;52.634;9.226;2023-08-07T01:58:10;15.30;99.90
13205;DHT22;6667;52.634;9.226;2023-08-07T02:00:37;15.30;99.90
13205;DHT22;6667;52.634;9.226;2023-08-07T02:03:05;15.30;99.90
13205;DHT22;6667;52.634;9.226;2023-08-07T02:06:00;15.30;99.90
13205;DHT22;6667;52.634;9.226;2023-08-07T02:08:28;15.30;99.90
13205;DHT22;6667;52.634;9.226;2023-08-07T02:10:56;15.20;99.90
13205;DHT22;6667;52.634;9.226;2023-08-07T02:13:35;15.20;99.90
13205;DHT22;6667;52.634;9.226;2023-08-07T02:16:02;15.10;99.90
13205;DHT22;6667;52.634;9.226;2023-08-07T02:18:29;15.10;99.90
13205;DHT22;6667;52.634;9.226;2023-08-07T02:20:56;15.10;99.90
13205;DHT22;6667;52.634;9.226;2023-08-07T02:23:23;15.20;99.90
13205;DHT22;6667;52.634;9.226;2023-08-07T02:25:51;15.10;99.90
13205;DHT22;6667;52.634;9.226;2023-08-07T02:28:19;15.10;99.90
13205;DHT22;6667;52.634;9.226;2023-08-07T02:30:51;15.20;99.90
13205;DHT22;6667;52.634;9.226;2023-08-07T02:33:19;15.20;99.90
13205;DHT22;6667;52.634;9.226;2023-08-07T02:35:46;15.20;99.90
13205;DHT22;6667;52.634;9.226;2023-08-07T02:38:13;15.20;99.90
13205;DHT22;6667;52.634;9.226;2023-08-07T02:40:40;15.20;99.90
13205;DHT22;6667;52.634;9.226;2023-08-07T02:43:07;15.30;99.90
13205;DHT22;6667;52.634;9.226;2023-08-07T02:48:48;15.30;99.90
13205;DHT22;6667;52.634;9.226;2023-08-07T02:51:15;15.30;99.90
13205;DHT22;6667;52.634;9.226;2023-08-07T02:53:56;15.30;99.90
13205;DHT22;6667;52.634;9.226;2023-08-07T02:56:23;15.30;99.90
13205;DHT22;6667;52.634;9.226;2023-08-07T02:58:50;15.20;99.90
13205;DHT22;6667;52.634;9.226;2023-08-07T03:01:17;15.20;99.90
13205;DHT22;6667;52.634;9.226;2023-08-07T03:03:44;15.30;99.90
13205;DHT22;6667;52.634;9.226;2023-08-07T03:06:12;15.20;99.90
13205;DHT22;6667;52.634;9.226;2023-08-07T03:08:39;15.30;99.90
13205;DHT22;6667;52.634;9.226;2023-08-07T03:11:06;15.30;99.90
13205;DHT22;6667;52.634;9.226;2023-08-07T03:13:33;15.30;99.90
13205;DHT22;6667;52.634;9.226;2023-08-07T03:16:01;15.20;99.90
13205;DHT22;6667;52.634;9.226;2023-08-07T03:18:35;15.20;99.90
13205;DHT22;6667;52.634;9.226;2023-08-07T03:21:02;15.30;99.90
13205;DHT22;6667;52.634;9.226;2023-08-07T03:23:31;15.30;99.90
13205;DHT22;6667;52.634;9.226;2023-08-07T03:26:12;15.20;99.90
13205;DHT22;6667;52.634;9.226;2023-08-07T03:28:39;15.30;99.90
13205;DHT22;6667;52.634;9.226;2023-08-07T03:31:06;15.30;99.90
13205;DHT22;6667;52.634;9.226;2023-08-07T03:33:33;15.30;99.90
13205;DHT22;6667;52.634;9.226;2023-08-07T03:36:00;15.30;99.90
13205;DHT22;6667;52.634;9.226;2023-08-07T03:38:27;15.30;99.90
13205;DHT22;6667;52.634;9.226;2023-08-07T03:40:58;15.30;99.90
13205;DHT22;6667;52.634;9.226;2023-08-07T03:43:25;15.30;99.90
13205;DHT22;6667;52.634;9.226;2023-08-07T03:45:54;15.30;99.90
13205;DHT22;6667;52.634;9.226;2023-08-07T03:48:25;15.30;99.90
13205;DHT22;6667;52.634;9.226;2023-08-07T03:50:52;15.30;99.90
13205;DHT22;6667;52.634;9.226;2023-08-07T03:53:19;15.20;99.90
13205;DHT22;6667;52.634;9.226;2023-08-07T03:55:49;15.20;99.90
13205;DHT22;6667;52.634;9.226;2023-08-07T03:58:18;15.20;99.90
13205;DHT22;6667;52.634;9.226;2023-08-07T04:00:45;15.20;99.90
13205;DHT22;6667;52.634;9.226;2023-08-07T04:03:12;15.10;99.90
13205;DHT22;6667;52.634;9.226;2023-08-07T04:05:42;15.20;99.90
13205;DHT22;6667;52.634;9.226;2023-08-07T04:08:09;15.10;99.90
13205;DHT22;6667;52.634;9.226;2023-08-07T04:10:36;15.10;99.90
13205;DHT22;6667;52.634;9.226;2023-08-07T04:13:09;15.10;99.90
13205;DHT22;6667;52.634;9.226;2023-08-07T04:16:16;15.10;99.90
13205;DHT22;6667;52.634;9.226;2023-08-07T04:22:20;15.10;99.90
13205;DHT22;6667;52.634;9.226;2023-08-07T04:24:53;15.10;99.90
13205;DHT22;6667;52.634;9.226;2023-08-07T04:27:26;15.10;99.90
13205;DHT22;6667;52.634;9.226;2023-08-07T04:29:53;15.10;99.90
13205;DHT22;6667;52.634;9.226;2023-08-07T04:32:22;15.10;99.90
13205;DHT22;6667;52.634;9.226;2023-08-07T04:35:03;15.10;99.90
13205;DHT22;6667;52.634;9.226;2023-08-07T04:37:30;15.10;99.90
13205;DHT22;6667;52.634;9.226;2023-08-07T04:42:43;15.10;99.90
13205;DHT22;6667;52.634;9.226;2023-08-07T04:45:10;15.20;99.90
13205;DHT22;6667;52.634;9.226;2023-08-07T04:47:38;15.10;99.90
13205;DHT22;6667;52.634;9.226;2023-08-07T04:50:06;15.20;99.90
13205;DHT22;6667;52.634;9.226;2023-08-07T04:52:34;15.20;99.90
13205;DHT22;6667;52.634;9.226;2023-08-07T04:55:01;15.20;99.90
13205;DHT22;6667;52.634;9.226;2023-08-07T04:58:09;15.30;99.90
13205;DHT22;6667;52.634;9.226;2023-08-07T05:00:36;15.30;99.90
13205;DHT22;6667;52.634;9.226;2023-08-07T05:03:07;15.20;99.90
13205;DHT22;6667;52.634;9.226;2023-08-07T05:05:34;15.30;99.90
13205;DHT22;6667;52.634;9.226;2023-08-07T05:08:00;15.20;99.90
13205;DHT22;6667;52.634;9.226;2023-08-07T05:10:28;15.30;99.90
13205;DHT22;6667;52.634;9.226;2023-08-07T05:12:55;15.30;99.90
13205;DHT22;6667;52.634;9.226;2023-08-07T05:15:27;15.30;99.90
13205;DHT22;6667;52.634;9.226;2023-08-07T05:17:56;15.30;99.90
13205;DHT22;6667;52.634;9.226;2023-08-07T05:20:25;15.30;99.90
13205;DHT22;6667;52.634;9.226;2023-08-07T05:22:52;15.30;99.90
13205;DHT22;6667;52.634;9.226;2023-08-07T05:25:19;15.30;99.90
13205;DHT22;6667;52.634;9.226;2023-08-07T05:27:46;15.30;99.90
13205;DHT22;6667;52.634;9.226;2023-08-07T05:30:14;15.30;99.90
13205;DHT22;6667;52.634;9.226;2023-08-07T05:32:41;15.30;99.90
13205;DHT22;6667;52.634;9.226;2023-08-07T05:35:08;15.30;99.90
13205;DHT22;6667;52.634;9.226;2023-08-07T05:37:40;15.30;99.90
13205;DHT22;6667;52.634;9.226;2023-08-07T05:40:08;15.30;99.90
13205;DHT22;6667;52.634;9.226;2023-08-07T05:42:42;15.30;99.90
13205;DHT22;6667;52.634;9.226;2023-08-07T05:45:10;15.30;99.90
13205;DHT22;6667;52.634;9.226;2023-08-07T05:47:37;15.30;99.90
13205;DHT22;6667;52.634;9.226;2023-08-07T05:50:05;15.40;99.90
13205;DHT22;6667;52.634;9.226;2023-08-07T05:52:41;15.30;99.90
13205;DHT22;6667;52.634;9.226;2023-08-07T05:55:09;15.40;99.90
13205;DHT22;6667;52.634;9.226;2023-08-07T05:57:36;15.40;99.90
13205;DHT22;6667;52.634;9.226;2023-08-07T06:00:07;15.40;99.90
13205;DHT22;6667;52.634;9.226;2023-08-07T06:02:39;15.50;99.90
13205;DHT22;6667;52.634;9.226;2023-08-07T06:05:07;15.50;99.90
13205;DHT22;6667;52.634;9.226;2023-08-07T06:07:35;15.60;99.90
13205;DHT22;6667;52.634;9.226;2023-08-07T06:10:37;15.70;99.90
13205;DHT22;6667;52.634;9.226;2023-08-07T06:13:04;15.70;99.90
13205;DHT22;6667;52.634;9.226;2023-08-07T06:15:32;15.80;99.90
13205;DHT22;6667;52.634;9.226;2023-08-07T06:17:59;15.90;99.90
13205;DHT22;6667;52.634;9.226;2023-08-07T06:20:30;15.90;99.90
13205;DHT22;6667;52.634;9.226;2023-08-07T06:22:57;16.00;99.90
13205;DHT22;6667;52.634;9.226;2023-08-07T06:25:24;15.90;99.90
13205;DHT22;6667;52.634;9.226;2023-08-07T06:34:39;16.20;99.90
13205;DHT22;6667;52.634;9.226;2023-08-07T06:37:06;16.10;99.90
13205;DHT22;6667;52.634;9.226;2023-08-07T06:39:33;16.20;99.90
13205;DHT22;6667;52.634;9.226;2023-08-07T06:42:01;16.30;99.90
13205;DHT22;6667;52.634;9.226;2023-08-07T06:44:29;16.30;99.90
13205;DHT22;6667;52.634;9.226;2023-08-07T06:46:56;16.50;99.90
13205;DHT22;6667;52.634;9.226;2023-08-07T06:49:33;16.50;99.90
13205;DHT22;6667;52.634;9.226;2023-08-07T06:52:02;16.50;99.90
13205;DHT22;6667;52.634;9.226;2023-08-07T06:54:29;16.50;99.90
13205;DHT22;6667;52.634;9.226;2023-08-07T06:56:56;16.50;99.90
13205;DHT22;6667;52.634;9.226;2023-08-07T06:59:23;16.50;99.90
13205;DHT22;6667;52.634;9.226;2023-08-07T07:05:17;16.80;99.90
13205;DHT22;6667;52.634;9.226;2023-08-07T07:07:45;16.90;99.90
13205;DHT22;6667;52.634;9.226;2023-08-07T07:10:13;16.90;99.90
13205;DHT22;6667;52.634;9.226;2023-08-07T07:12:40;16.90;99.90
13205;DHT22;6667;52.634;9.226;2023-08-07T07:15:08;17.00;99.90
13205;DHT22;6667;52.634;9.226;2023-08-07T07:17:35;17.00;99.90
13205;DHT22;6667;52.634;9.226;2023-08-07T07:20:03;17.10;99.90
13205;DHT22;6667;52.634;9.226;2023-08-07T07:22:31;17.00;99.90
13205;DHT22;6667;52.634;9.226;2023-08-07T07:25:00;17.30;99.90
13205;DHT22;6667;52.634;9.226;2023-08-07T07:27:27;17.60;99.90
13205;DHT22;6667;52.634;9.226;2023-08-07T07:36:34;17.60;99.90
13205;DHT22;6667;52.634;9.226;2023-08-07T07:39:01;17.80;99.90
13205;DHT22;6667;52.634;9.226;2023-08-07T07:41:32;17.90;99.90
13205;DHT22;6667;52.634;9.226;2023-08-07T07:43:59;18.00;99.90
13205;DHT22;6667;52.634;9.226;2023-08-07T07:46:28;18.10;99.90
13205;DHT22;6667;52.634;9.226;2023-08-07T07:48:55;18.20;99.90
13205;DHT22;6667;52.634;9.226;2023-08-07T07:51:25;18.20;99.90
13205;DHT22;6667;52.634;9.226;2023-08-07T07:53:53;18.30;99.90
13205;DHT22;6667;52.634;9.226;2023-08-07T07:56:36;18.50;99.90
13205;DHT22;6667;52.634;9.226;2023-08-07T08:02:24;19.40;99.90
13205;DHT22;6667;52.634;9.226;2023-08-07T08:04:54;18.90;99.90
13205;DHT22;6667;52.634;9.226;2023-08-07T08:07:22;18.50;99.90
13205;DHT22;6667;52.634;9.226;2023-08-07T08:09:49;18.10;99.90
13205;DHT22;6667;52.634;9.226;2023-08-07T08:12:21;17.90;99.90
13205;DHT22;6667;52.634;9.226;2023-08-07T08:15:09;17.90;99.90
13205;DHT22;6667;52.634;9.226;2023-08-07T08:17:37;17.60;99.90
13205;DHT22;6667;52.634;9.226;2023-08-07T08:27:00;17.60;99.90
13205;DHT22;6667;52.634;9.226;2023-08-07T08:29:29;18.00;99.90
13205;DHT22;6667;52.634;9.226;2023-08-07T08:31:56;18.10;99.90
13205;DHT22;6667;52.634;9.226;2023-08-07T08:34:25;18.10;99.90
13205;DHT22;6667;52.634;9.226;2023-08-07T08:40:35;18.40;99.90
13205;DHT22;6667;52.634;9.226;2023-08-07T08:43:05;18.90;99.90
13205;DHT22;6667;52.634;9.226;2023-08-07T08:45:37;19.50;99.90
13205;DHT22;6667;52.634;9.226;2023-08-07T08:48:13;19.90;99.90
13205;DHT22;6667;52.634;9.226;2023-08-07T08:50:48;19.80;99.90
13205;DHT22;6667;52.634;9.226;2023-08-07T08:53:16;20.10;99.90
13205;DHT22;6667;52.634;9.226;2023-08-07T08:55:43;19.80;99.90
13205;DHT22;6667;52.634;9.226;2023-08-07T08:58:13;19.50;99.90
13205;DHT22;6667;52.634;9.226;2023-08-07T09:01:10;19.60;99.90
13205;DHT22;6667;52.634;9.226;2023-08-07T09:03:59;19.80;99.90
13205;DHT22;6667;52.634;9.226;2023-08-07T09:06:31;19.40;99.90
13205;DHT22;6667;52.634;9.226;2023-08-07T09:08:59;19.40;99.90
13205;DHT22;6667;52.634;9.226;2023-08-07T09:11:28;19.20;99.90
13205;DHT22;6667;52.634;9.226;2023-08-07T09:14:00;19.00;99.90
13205;DHT22;6667;52.634;9.226;2023-08-07T09:16:30;19.10;99.90
13205;DHT22;6667;52.634;9.226;2023-08-07T09:25:29;19.40;99.90
13205;DHT22;6667;52.634;9.226;2023-08-07T09:45:21;19.70;99.90
13205;DHT22;6667;52.634;9.226;2023-08-07T09:48:06;19.30;99.90
13205;DHT22;6667;52.634;9.226;2023-08-07T09:50:34;19.40;99.90
13205;DHT22;6667;52.634;9.226;2023-08-07T09:53:01;18.70;99.90
13205;DHT22;6667;52.634;9.226;2023-08-07T09:55:28;18.30;99.90
13205;DHT22;6667;52.634;9.226;2023-08-07T09:57:55;17.80;99.90
13205;DHT22;6667;52.634;9.226;2023-08-07T10:00:24;17.80;99.90
13205;DHT22;6667;52.634;9.226;2023-08-07T10:02:51;17.90;99.90
13205;DHT22;6667;52.634;9.226;2023-08-07T10:05:20;18.80;99.90
13205;DHT22;6667;52.634;9.226;2023-08-07T10:07:47;19.40;99.90
13205;DHT22;6667;52.634;9.226;2023-08-07T10:10:16;19.10;99.90
13205;DHT22;6667;52.634;9.226;2023-08-07T10:12:43;18.90;99.90
13205;DHT22;6667;52.634;9.226;2023-08-07T10:15:16;19.10;99.90
13205;DHT22;6667;52.634;9.226;2023-08-07T10:27:42;19.00;99.90
13205;DHT22;6667;52.634;9.226;2023-08-07T10:30:12;19.20;99.90
13205;DHT22;6667;52.634;9.226;2023-08-07T10:32:58;19.60;99.90
13205;DHT22;6667;52.634;9.226;2023-08-07T10:35:30;20.50;99.90
13205;DHT22;6667;52.634;9.226;2023-08-07T10:38:11;20.30;99.90
13205;DHT22;6667;52.634;9.226;2023-08-07T10:40:59;19.80;99.90
13205;DHT22;6667;52.634;9.226;2023-08-07T10:43:30;20.30;99.90
13205;DHT22;6667;52.634;9.226;2023-08-07T10:46:03;20.90;99.90
13205;DHT22;6667;52.634;9.226;2023-08-07T10:48:47;21.40;99.90
13205;DHT22;6667;52.634;9.226;2023-08-07T10:51:21;20.70;99.90
13205;DHT22;6667;52.634;9.226;2023-08-07T10:53:57;20.30;99.90
13205;DHT22;6667;52.634;9.226;2023-08-07T10:56:30;19.60;99.90
13205;DHT22;6667;52.634;9.226;2023-08-07T10:59:07;19.10;99.90
13205;DHT22;6667;52.634;9.226;2023-08-07T11:01:41;18.80;99.90
13205;DHT22;6667;52.634;9.226;2023-08-07T11:04:12;18.40;99.90
13205;DHT22;6667;52.634;9.226;2023-08-07T11:06:41;18.30;99.90
13205;DHT22;6667;52.634;9.226;2023-08-07T11:09:14;18.30;99.90
13205;DHT22;6667;52.634;9.226;2023-08-07T11:12:01;18.20;99.90
13205;DHT22;6667;52.634;9.226;2023-08-07T11:14:29;18.30;99.90
13205;DHT22;6667;52.634;9.226;2023-08-07T11:16:56;18.70;99.90
13205;DHT22;6667;52.634;9.226;2023-08-07T11:19:23;19.00;99.90
13205;DHT22;6667;52.634;9.226;2023-08-07T11:21:51;19.20;99.90
13205;DHT22;6667;52.634;9.226;2023-08-07T11:24:19;19.70;99.90
13205;DHT22;6667;52.634;9.226;2023-08-07T11:26:48;20.30;99.90
13205;DHT22;6667;52.634;9.226;2023-08-07T11:29:16;20.60;99.90
13205;DHT22;6667;52.634;9.226;2023-08-07T11:31:45;20.30;99.90
13205;DHT22;6667;52.634;9.226;2023-08-07T11:34:35;19.60;99.90
13205;DHT22;6667;52.634;9.226;2023-08-07T11:37:02;19.00;99.90
13205;DHT22;6667;52.634;9.226;2023-08-07T11:39:30;18.50;99.90
13205;DHT22;6667;52.634;9.226;2023-08-07T11:41:57;18.50;99.90
13205;DHT22;6667;52.634;9.226;2023-08-07T11:44:24;18.50;99.90
13205;DHT22;6667;52.634;9.226;2023-08-07T11:46:52;18.70;99.90
13205;DHT22;6667;52.634;9.226;2023-08-07T11:49:19;19.00;99.90
13205;DHT22;6667;52.634;9.226;2023-08-07T11:51:47;19.60;99.90
13205;DHT22;6667;52.634;9.226;2023-08-07T11:54:15;20.10;99.90
13205;DHT22;6667;52.634;9.226;2023-08-07T11:56:42;20.50;99.90
13205;DHT22;6667;52.634;9.226;2023-08-07T12:05:13;20.10;99.90
13205;DHT22;6667;52.634;9.226;2023-08-07T12:07:41;19.90;99.90
13205;DHT22;6667;52.634;9.226;2023-08-07T12:10:10;20.10;99.90
13205;DHT22;6667;52.634;9.226;2023-08-07T12:12:37;20.20;99.90
13205;DHT22;6667;52.634;9.226;2023-08-07T12:15:29;20.40;99.90
13205;DHT22;6667;52.634;9.226;2023-08-07T12:18:01;20.60;99.90
13205;DHT22;6667;52.634;9.226;2023-08-07T12:20:29;20.60;99.90
13205;DHT22;6667;52.634;9.226;2023-08-07T12:22:55;20.70;99.90
13205;DHT22;6667;52.634;9.226;2023-08-07T12:25:25;20.80;99.90
13205;DHT22;6667;52.634;9.226;2023-08-07T12:30:51;20.00;99.90
13205;DHT22;6667;52.634;9.226;2023-08-07T12:33:19;19.90;99.90
13205;DHT22;6667;52.634;9.226;2023-08-07T12:35:53;19.90;99.90
13205;DHT22;6667;52.634;9.226;2023-08-07T12:38:30;19.60;99.90
13205;DHT22;6667;52.634;9.226;2023-08-07T12:41:00;19.60;99.90
13205;DHT22;6667;52.634;9.226;2023-08-07T12:46:19;19.60;99.90
13205;DHT22;6667;52.634;9.226;2023-08-07T12:52:12;19.30;99.90
13205;DHT22;6667;52.634;9.226;2023-08-07T12:54:39;18.90;99.90
13205;DHT22;6667;52.634;9.226;2023-08-07T12:57:06;18.90;99.90
13205;DHT22;6667;52.634;9.226;2023-08-07T12:59:33;19.10;99.90
13205;DHT22;6667;52.634;9.226;2023-08-07T13:02:09;19.30;99.90
13205;DHT22;6667;52.634;9.226;2023-08-07T13:04:36;19.60;99.90
13205;DHT22;6667;52.634;9.226;2023-08-07T13:10:37;20.10;99.90
13205;DHT22;6667;52.634;9.226;2023-08-07T13:13:06;20.30;99.90
13205;DHT22;6667;52.634;9.226;2023-08-07T13:15:33;20.70;99.90
13205;DHT22;6667;52.634;9.226;2023-08-07T13:18:00;20.70;99.90
13205;DHT22;6667;52.634;9.226;2023-08-07T13:20:32;20.60;99.90
13205;DHT22;6667;52.634;9.226;2023-08-07T13:23:00;20.50;99.90
13205;DHT22;6667;52.634;9.226;2023-08-07T13:25:30;20.40;99.90
13205;DHT22;6667;52.634;9.226;2023-08-07T13:27:59;20.20;99.90
13205;DHT22;6667;52.634;9.226;2023-08-07T13:30:26;20.10;99.90
13205;DHT22;6667;52.634;9.226;2023-08-07T13:32:54;19.90;99.90
13205;DHT22;6667;52.634;9.226;2023-08-07T13:35:21;19.90;99.90
13205;DHT22;6667;52.634;9.226;2023-08-07T13:37:48;20.50;99.90
13205;DHT22;6667;52.634;9.226;2023-08-07T13:40:16;20.60;99.90
13205;DHT22;6667;52.634;9.226;2023-08-07T13:42:44;20.30;99.90
13205;DHT22;6667;52.634;9.226;2023-08-07T13:45:12;20.00;99.90
13205;DHT22;6667;52.634;9.226;2023-08-07T13:47:39;20.20;99.90
13205;DHT22;6667;52.634;9.226;2023-08-07T13:50:07;20.30;99.90
13205;DHT22;6667;52.634;9.226;2023-08-07T13:52:38;20.40;99.90
13205;DHT22;6667;52.634;9.226;2023-08-07T13:55:06;20.50;99.90
13205;DHT22;6667;52.634;9.226;2023-08-07T13:57:34;20.80;99.90
13205;DHT22;6667;52.634;9.226;2023-08-07T14:00:01;20.90;99.90
13205;DHT22;6667;52.634;9.226;2023-08-07T14:05:26;20.70;99.90
13205;DHT22;6667;52.634;9.226;2023-08-07T14:07:52;20.90;99.90
13205;DHT22;6667;52.634;9.226;2023-08-07T14:10:20;21.00;99.90
13205;DHT22;6667;52.634;9.226;2023-08-07T14:12:47;21.10;99.90
13205;DHT22;6667;52.634;9.226;2023-08-07T14:15:14;21.20;99.90
13205;DHT22;6667;52.634;9.226;2023-08-07T14:18:13;21.10;99.90
13205;DHT22;6667;52.634;9.226;2023-08-07T14:20:40;20.90;99.90
13205;DHT22;6667;52.634;9.226;2023-08-07T14:23:07;20.90;99.90
13205;DHT22;6667;52.634;9.226;2023-08-07T14:25:34;21.00;99.90
13205;DHT22;6667;52.634;9.226;2023-08-07T14:28:01;21.20;99.90
13205;DHT22;6667;52.634;9.226;2023-08-07T14:30:27;21.20;99.90
13205;DHT22;6667;52.634;9.226;2023-08-07T14:32:54;21.00;99.90
13205;DHT22;6667;52.634;9.226;2023-08-07T14:35:22;21.00;99.90
13205;DHT22;6667;52.634;9.226;2023-08-07T14:37:48;21.00;99.90
13205;DHT22;6667;52.634;9.226;2023-08-07T14:40:16;21.00;99.90
13205;DHT22;6667;52.634;9.226;2023-08-07T14:42:42;20.90;99.90
13205;DHT22;6667;52.634;9.226;2023-08-07T14:45:16;20.70;99.90
13205;DHT22;6667;52.634;9.226;2023-08-07T14:47:43;20.30;99.90
13205;DHT22;6667;52.634;9.226;2023-08-07T14:50:11;20.10;99.90
13205;DHT22;6667;52.634;9.226;2023-08-07T14:52:40;20.00;99.90
13205;DHT22;6667;52.634;9.226;2023-08-07T14:55:07;19.80;99.90
13205;DHT22;6667;52.634;9.226;2023-08-07T14:57:34;19.20;99.90
13205;DHT22;6667;52.634;9.226;2023-08-07T15:00:01;19.20;99.90
13205;DHT22;6667;52.634;9.226;2023-08-07T15:02:30;19.20;99.90
13205;DHT22;6667;52.634;9.226;2023-08-07T15:04:56;19.40;99.90
13205;DHT22;6667;52.634;9.226;2023-08-07T15:07:23;19.50;99.90
13205;DHT22;6667;52.634;9.226;2023-08-07T15:09:52;19.70;99.90
13205;DHT22;6667;52.634;9.226;2023-08-07T15:12:19;19.60;99.90
13205;DHT22;6667;52.634;9.226;2023-08-07T15:14:49;19.80;99.90
13205;DHT22;6667;52.634;9.226;2023-08-07T15:17:16;20.00;99.90
13205;DHT22;6667;52.634;9.226;2023-08-07T15:19:43;19.90;99.90
13205;DHT22;6667;52.634;9.226;2023-08-07T15:22:10;19.90;99.90
13205;DHT22;6667;52.634;9.226;2023-08-07T15:24:39;19.90;99.90
13205;DHT22;6667;52.634;9.226;2023-08-07T15:27:08;19.80;99.90
13205;DHT22;6667;52.634;9.226;2023-08-07T15:29:35;19.90;99.90
13205;DHT22;6667;52.634;9.226;2023-08-07T15:32:02;19.80;99.90
13205;DHT22;6667;52.634;9.226;2023-08-07T15:34:29;19.60;99.90
13205;DHT22;6667;52.634;9.226;2023-08-07T15:36:56;19.50;99.90
13205;DHT22;6667;52.634;9.226;2023-08-07T15:39:23;19.40;99.90
13205;DHT22;6667;52.634;9.226;2023-08-07T15:41:54;19.10;99.90
13205;DHT22;6667;52.634;9.226;2023-08-07T15:44:22;18.80;99.90
13205;DHT22;6667;52.634;9.226;2023-08-07T15:53:05;18.50;99.90
13205;DHT22;6667;52.634;9.226;2023-08-07T15:55:32;18.30;99.90
13205;DHT22;6667;52.634;9.226;2023-08-07T16:01:10;18.20;99.90
13205;DHT22;6667;52.634;9.226;2023-08-07T16:03:37;18.00;99.90
13205;DHT22;6667;52.634;9.226;2023-08-07T16:06:04;18.10;99.90
13205;DHT22;6667;52.634;9.226;2023-08-07T16:08:31;18.20;99.90
13205;DHT22;6667;52.634;9.226;2023-08-07T16:10:58;18.10;99.90
13205;DHT22;6667;52.634;9.226;2023-08-07T16:13:26;18.10;99.90
13205;DHT22;6667;52.634;9.226;2023-08-07T16:15:57;18.20;99.90
13205;DHT22;6667;52.634;9.226;2023-08-07T16:18:52;17.90;99.90
13205;DHT22;6667;52.634;9.226;2023-08-07T16:21:19;17.90;99.90
13205;DHT22;6667;52.634;9.226;2023-08-07T16:23:46;17.90;99.90
13205;DHT22;6667;52.634;9.226;2023-08-07T16:26:13;18.10;99.90
13205;DHT22;6667;52.634;9.226;2023-08-07T16:28:40;18.00;99.90
13205;DHT22;6667;52.634;9.226;2023-08-07T16:31:07;18.00;99.90
13205;DHT22;6667;52.634;9.226;2023-08-07T16:33:34;18.10;99.90
13205;DHT22;6667;52.634;9.226;2023-08-07T16:36:02;17.80;99.90
13205;DHT22;6667;52.634;9.226;2023-08-07T16:38:29;17.90;99.90
13205;DHT22;6667;52.634;9.226;2023-08-07T16:40:56;17.70;99.90
13205;DHT22;6667;52.634;9.226;2023-08-07T16:43:23;17.70;99.90
13205;DHT22;6667;52.634;9.226;2023-08-07T16:45:50;17.80;99.90
13205;DHT22;6667;52.634;9.226;2023-08-07T16:48:17;17.80;99.90
13205;DHT22;6667;52.634;9.226;2023-08-07T16:57:47;17.80;99.90
13205;DHT22;6667;52.634;9.226;2023-08-07T17:00:14;17.60;99.90
13205;DHT22;6667;52.634;9.226;2023-08-07T17:02:42;17.70;99.90
13205;DHT22;6667;52.634;9.226;2023-08-07T17:05:09;17.80;99.90
13205;DHT22;6667;52.634;9.226;2023-08-07T17:07:35;17.80;99.90
13205;DHT22;6667;52.634;9.226;2023-08-07T17:10:03;17.80;99.90
13205;DHT22;6667;52.634;9.226;2023-08-07T17:12:30;17.70;99.90
13205;DHT22;6667;52.634;9.226;2023-08-07T17:15:07;17.70;99.90
13205;DHT22;6667;52.634;9.226;2023-08-07T17:17:40;17.60;99.90
13205;DHT22;6667;52.634;9.226;2023-08-07T17:20:08;17.70;99.90
13205;DHT22;6667;52.634;9.226;2023-08-07T17:22:35;17.70;99.90
13205;DHT22;6667;52.634;9.226;2023-08-07T17:25:02;17.60;99.90
13205;DHT22;6667;52.634;9.226;2023-08-07T17:27:29;17.50;99.90
13205;DHT22;6667;52.634;9.226;2023-08-07T17:29:57;17.40;99.90
13205;DHT22;6667;52.634;9.226;2023-08-07T17:32:24;17.30;99.90
13205;DHT22;6667;52.634;9.226;2023-08-07T17:34:51;17.30;99.90
13205;DHT22;6667;52.634;9.226;2023-08-07T17:37:20;17.30;99.90
13205;DHT22;6667;52.634;9.226;2023-08-07T17:39:47;17.40;99.90
13205;DHT22;6667;52.634;9.226;2023-08-07T17:42:14;17.40;99.90
13205;DHT22;6667;52.634;9.226;2023-08-07T17:44:41;17.30;99.90
13205;DHT22;6667;52.634;9.226;2023-08-07T17:47:09;17.20;99.90
13205;DHT22;6667;52.634;9.226;2023-08-07T17:49:36;17.10;99.90
13205;DHT22;6667;52.634;9.226;2023-08-07T17:52:06;17.00;99.90
13205;DHT22;6667;52.634;9.226;2023-08-07T17:54:33;16.90;99.90
13205;DHT22;6667;52.634;9.226;2023-08-07T17:57:01;16.90;99.90
13205;DHT22;6667;52.634;9.226;2023-08-07T17:59:29;16.90;99.90
13205;DHT22;6667;52.634;9.226;2023-08-07T18:01:55;16.80;99.90
13205;DHT22;6667;52.634;9.226;2023-08-07T18:04:23;16.90;99.90
13205;DHT22;6667;52.634;9.226;2023-08-07T18:06:50;16.90;99.90
13205;DHT22;6667;52.634;9.226;2023-08-07T18:09:17;16.80;99.90
13205;DHT22;6667;52.634;9.226;2023-08-07T18:11:44;16.70;99.90
13205;DHT22;6667;52.634;9.226;2023-08-07T18:14:11;16.60;99.90